Darstellungsparameter: Aktuell verwendete Einstellungen:
Skalierung der Graphiken ... ?
xyx+y,   Skalierungsfaktor:      Skalierung: Modus: x, Faktor: 1
Darstellungszeitraum ... ?
Vom - - bis: - -   Zeitraum: 20.10.2017 - 20.10.2017
Min/Max/Avg-Anzeige ... ?
Zeige MMA aktuell
Zeige MMA Monat
Zeige MMA alles
Zeige --A aktuell
Zeige --A Monat
Zeige --A alles
Keine MMA-Anzeige
MMA:
Average (ber die Originaldaten)
MMA-Basis: 23.02.2003 - 30.09.2020
Quicknavigation für Darstellung... ?
Tage:      1T, 2T, 3T, 5T -1T -2T -3T -5T +1T +2T +3T +5T
Wochen: 1W, 2W, 3W -1W -2W -3W +1W +2W +3W
Monate: 1M, 3M, 6M -1M -3M -6M +1M +3M +6M
Jahre:    1J, 3J, 5J, 10J -1J -3J -5J -10J +1J +3J +5J +10J
Nutze für die Darstellung ... ?
Originaldaten oder Mittelwerte auf ...
Stundenbasis Tagesbasis Wochenbasis
Monatsbasis Jahresbasis      Datenbasis: Original-Daten
Darstellen als:
Statistik (Auto) Statistik J:M      Darstellung:
Zur Graphik,    zurück zur Übersicht aller Sensoren.
 
Tabellarische Datenbersicht: ?
 
Sensor: Nr:Datum:Temp:Abs-Feuchte:Windchill:Wind:
Aussen-T/F 1 20-10-2017 00:00:00 11.8 C 9.79 g/m*3 11.8 C 0 km/h
2 20-10-2017 00:05:00 11.8 C 9.79 g/m*3 11.8 C 0 km/h
3 20-10-2017 00:10:00 11.7 C 9.73 g/m*3 11.7 C 0 km/h
4 20-10-2017 00:15:00 11.7 C 9.83 g/m*3 11.7 C 0 km/h
5 20-10-2017 00:20:00 11.6 C 9.77 g/m*3 11.6 C 0 km/h
6 20-10-2017 00:25:00 11.6 C 9.77 g/m*3 11.6 C 0 km/h
7 20-10-2017 00:30:00 11.5 C 9.71 g/m*3 11.5 C 0 km/h
8 20-10-2017 00:35:00 11.4 C 9.65 g/m*3 11.4 C 0 km/h
9 20-10-2017 00:40:00 11.4 C 9.65 g/m*3 11.4 C 0 km/h
10 20-10-2017 00:45:00 11.4 C 9.65 g/m*3 11.4 C 0 km/h
11 20-10-2017 18:00:00 14.5 C 9.83 g/m*3 14.5 C 0 km/h
12 20-10-2017 18:05:00 14.4 C 9.52 g/m*3 14.4 C 0 km/h
13 20-10-2017 18:10:00 14.3 C 9.58 g/m*3 14.3 C 0 km/h
14 20-10-2017 18:15:00 14.1 C 9.59 g/m*3 14.1 C 0 km/h
15 20-10-2017 18:20:00 13.9 C 9.47 g/m*3 13.9 C 0 km/h
16 20-10-2017 18:25:00 13.6 C 9.42 g/m*3 13.6 C 0 km/h
17 20-10-2017 18:30:00 13.4 C 9.3 g/m*3 13.4 C 1.6 km/h
18 20-10-2017 18:35:00 13.2 C 9.3 g/m*3 13.2 C 3.2 km/h
19 20-10-2017 18:40:00 13.1 C 8.9 g/m*3 13.1 C 9.7 km/h
20 20-10-2017 18:45:00 13.2 C 9.42 g/m*3 13.2 C 1.6 km/h
21 20-10-2017 18:50:00 13.1 C 9.24 g/m*3 13.1 C 1.6 km/h
22 20-10-2017 18:55:00 12.9 C 9.02 g/m*3 12.9 C 4.8 km/h
23 20-10-2017 19:00:00 12.8 C 8.96 g/m*3 12.8 C 3.2 km/h
24 20-10-2017 19:05:00 12.7 C 8.91 g/m*3 12.7 C 3.2 km/h
25 20-10-2017 19:10:00 12.6 C 8.96 g/m*3 12.6 C 1.6 km/h
Sensor: Nr:Datum:Temp:Abs-Feuchte:Windchill:Wind:
Aussen-T/F 26 20-10-2017 19:15:00 12.5 C 9.02 g/m*3 12.5 C 1.6 km/h
27 20-10-2017 19:20:00 12.3 C 9.01 g/m*3 12.3 C 3.2 km/h
28 20-10-2017 19:25:00 12.2 C 8.96 g/m*3 12.2 C 0 km/h
29 20-10-2017 19:30:00 12 C 8.95 g/m*3 12 C 0 km/h
30 20-10-2017 19:35:00 11.8 C 8.84 g/m*3 11.8 C 0 km/h
31 20-10-2017 19:40:00 11.7 C 8.89 g/m*3 11.7 C 0 km/h
32 20-10-2017 19:45:00 11.5 C 8.78 g/m*3 11.5 C 0 km/h
33 20-10-2017 19:50:00 11.3 C 8.77 g/m*3 11.3 C 0 km/h
34 20-10-2017 19:55:00 11.2 C 8.82 g/m*3 11.2 C 0 km/h
35 20-10-2017 20:00:00 11.1 C 8.76 g/m*3 11.1 C 0 km/h
36 20-10-2017 20:05:00 11 C 8.71 g/m*3 11 C 0 km/h
37 20-10-2017 20:10:00 10.9 C 8.65 g/m*3 10.9 C 0 km/h
38 20-10-2017 20:15:00 10.8 C 8.6 g/m*3 10.8 C 0 km/h
39 20-10-2017 20:20:00 10.7 C 8.64 g/m*3 10.7 C 0 km/h
40 20-10-2017 20:25:00 10.6 C 8.59 g/m*3 10.6 C 0 km/h
41 20-10-2017 20:30:00 10.4 C 8.48 g/m*3 10.4 C 0 km/h
42 20-10-2017 20:35:00 10.3 C 8.43 g/m*3 10.3 C 0 km/h
43 20-10-2017 20:40:00 10.2 C 8.37 g/m*3 10.2 C 0 km/h
44 20-10-2017 20:45:00 10.1 C 8.42 g/m*3 10.1 C 0 km/h
45 20-10-2017 20:50:00 10 C 8.36 g/m*3 10 C 0 km/h
46 20-10-2017 20:55:00 9.9 C 8.31 g/m*3 9.9 C 0 km/h
47 20-10-2017 21:00:00 9.8 C 8.26 g/m*3 9.8 C 0 km/h
48 20-10-2017 21:05:00 9.7 C 8.2 g/m*3 9.7 C 0 km/h
49 20-10-2017 21:10:00 9.6 C 8.24 g/m*3 9.6 C 0 km/h
50 20-10-2017 21:15:00 9.5 C 8.19 g/m*3 9.5 C 0 km/h
Sensor: Nr:Datum:Temp:Abs-Feuchte:Windchill:Wind:
Aussen-T/F 51 20-10-2017 21:20:00 9.4 C 8.14 g/m*3 9.4 C 0 km/h
52 20-10-2017 21:25:00 9.3 C 8.09 g/m*3 9.3 C 0 km/h
53 20-10-2017 21:30:00 9.2 C 8.13 g/m*3 9.2 C 0 km/h
54 20-10-2017 21:35:00 9.2 C 8.13 g/m*3 9.2 C 0 km/h
55 20-10-2017 21:40:00 9 C 8.02 g/m*3 9 C 0 km/h
56 20-10-2017 21:45:00 9 C 8.02 g/m*3 9 C 0 km/h
57 20-10-2017 21:50:00 8.9 C 7.97 g/m*3 8.9 C 0 km/h
58 20-10-2017 21:55:00 8.8 C 7.92 g/m*3 8.8 C 0 km/h
59 20-10-2017 22:00:00 8.8 C 7.92 g/m*3 8.8 C 1.6 km/h
60 20-10-2017 22:05:00 8.7 C 7.96 g/m*3 8.7 C 0 km/h
61 20-10-2017 22:10:00 8.7 C 7.96 g/m*3 8.7 C 0 km/h
62 20-10-2017 22:15:00 8.6 C 7.91 g/m*3 8.6 C 0 km/h
63 20-10-2017 22:20:00 8.6 C 7.91 g/m*3 8.6 C 0 km/h
64 20-10-2017 22:25:00 8.5 C 7.85 g/m*3 8.5 C 0 km/h
65 20-10-2017 22:30:00 8.4 C 7.89 g/m*3 8.4 C 0 km/h
66 20-10-2017 22:35:00 8.4 C 7.89 g/m*3 8.4 C 0 km/h
67 20-10-2017 22:40:00 8.4 C 7.89 g/m*3 8.4 C 0 km/h
68 20-10-2017 22:45:00 8.3 C 7.84 g/m*3 8.3 C 0 km/h
69 20-10-2017 22:50:00 8.3 C 7.84 g/m*3 8.3 C 0 km/h
70 20-10-2017 22:55:00 8.3 C 7.84 g/m*3 8.3 C 0 km/h
71 20-10-2017 23:00:00 8.3 C 7.84 g/m*3 8.3 C 0 km/h
72 20-10-2017 23:05:00 8.2 C 7.79 g/m*3 8.2 C 0 km/h
73 20-10-2017 23:10:00 8.2 C 7.79 g/m*3 8.2 C 0 km/h
74 20-10-2017 23:15:00 8.2 C 7.79 g/m*3 8.2 C 0 km/h
75 20-10-2017 23:20:00 8.2 C 7.87 g/m*3 8.2 C 0 km/h
Sensor: Nr:Datum:Temp:Abs-Feuchte:Windchill:Wind:
Aussen-T/F 76 20-10-2017 23:25:00 8.2 C 7.87 g/m*3 8.2 C 0 km/h
77 20-10-2017 23:30:00 8.2 C 7.87 g/m*3 8.2 C 0 km/h
78 20-10-2017 23:35:00 8.3 C 7.92 g/m*3 8.3 C 0 km/h
79 20-10-2017 23:40:00 8.3 C 7.92 g/m*3 8.3 C 0 km/h
80 20-10-2017 23:45:00 8.2 C 7.87 g/m*3 8.2 C 0 km/h
81 20-10-2017 23:50:00 8.1 C 7.82 g/m*3 8.1 C 0 km/h
82 20-10-2017 23:55:00 8 C 7.69 g/m*3 8 C 0 km/h

Legende:
   Min
   Max


Maximal/Minimal-Werte vom 23.02.2003 - 30.09.2020

Sensor Min Max Avg
Temp
(Aussen-T/F)
-16.4 °C
20-12-2009  01:30:01
40.4 °C
25-07-2019  16:20:00
11.32 °C

Die Daten stammen von einer Davis Vantage Pro 2 Wetter-Station und werden unter Linux mit der Software wview2wettercgi und aufbereitet. Alle Angaben erfolgen ohne Gewähr für ihre Vollständigkeit oder Richtigkeit.
Kontakt: Rainer Krienke krienke@uni-koblenz.de . Meine Webseiten an der Uni Koblenz oder privat.
Version: $Revision: 0.78 $